Argyle, Wisconsin
Current Conditions -  °F | °C
As of 4:55 PM on Friday 28 Nov 2014 (Local Time) from KEFT Reporting Station
Broken Clouds Broken Clouds  
Wind Chill: 22°   Ceiling: 9000
Heat Index: 28°   Visibility: 10mi
Dew Point: 28°   Wind: 6mph
Humidity: 100%   Direction: 150°SSE
Pressure: 29.88"   Gusts: NA
Location:  42.7°N, 89.87°W
Report Text: KEFT 282255Z AUTO 15005KT 10SM BKN090 M02/M02 A2988 RMK AO2
Loading
Personal Weather Stations






























Interactive Weather Map New forecast layout! Learn more

10-Day Weather Forecast

Advertisements
Track Severe Weather on mobile